Time;durP1;ratioP1;P1;durP2;ratioP2;P2;SDS_P1;SDS_P2;PMS_P1;PMS_P2;Temp;Humidity;BMP_temperature;BMP_pressure;BME280_temperature;BME280_humidity;BME280_pressure;Samples;Min_cycle;Max_cycle;Signal;HPM_P1;HPM_P2
2023/01/05 00:01:08;;;;;;;5.78;3.25;;;5.50;99.90;;;;;;5113887;28;20110;-64
2023/01/05 00:03:35;;;;;;;6.85;3.22;;;5.50;99.90;;;;;;5110918;28;20035;-63
2023/01/05 00:06:10;;;;;;;7.20;3.63;;;5.60;99.90;;;;;;5113846;28;20531;-64
2023/01/05 00:08:38;;;;;;;5.10;3.00;;;5.60;99.90;;;;;;5112219;28;20048;-62
2023/01/05 00:22:30;;;;;;;5.90;3.45;;;5.50;99.90;;;;;;5112532;28;20039;-62
2023/01/05 00:25:16;;;;;;;5.50;2.90;;;5.50;99.90;;;;;;5111708;28;20453;-66
2023/01/05 00:27:46;;;;;;;10.55;3.90;;;5.50;99.90;;;;;;5109858;28;20568;-64
2023/01/05 00:30:15;;;;;;;8.45;3.42;;;5.50;99.90;;;;;;5095047;28;20043;-64
2023/01/05 00:32:42;;;;;;;7.43;3.53;;;5.50;99.90;;;;;;5111780;28;20040;-61
2023/01/05 00:35:10;;;;;;;;;;;5.50;99.90;;;;;;5093638;28;20046;-64
2023/01/05 00:37:37;;;;;;;8.52;3.17;;;5.50;99.90;;;;;;5093576;28;20456;-64
2023/01/05 00:40:08;;;;;;;;;;;5.60;99.90;;;;;;5113648;28;20047;-62
2023/01/05 00:42:36;;;;;;;6.05;2.90;;;5.60;99.90;;;;;;5111564;28;20333;-62
2023/01/05 00:45:05;;;;;;;4.43;2.90;;;5.60;99.90;;;;;;5103922;28;20415;-64
2023/01/05 00:47:32;;;;;;;6.05;2.78;;;5.60;99.90;;;;;;5093244;28;20096;-65
2023/01/05 00:49:59;;;;;;;6.25;2.63;;;5.60;99.90;;;;;;5112540;28;20488;-62
2023/01/05 00:52:26;;;;;;;7.03;3.10;;;5.60;99.90;;;;;;5085807;28;20035;-65
2023/01/05 00:54:53;;;;;;;7.57;3.22;;;5.50;99.90;;;;;;5094639;28;20040;-64
2023/01/05 00:57:20;;;;;;;5.00;2.97;;;5.60;99.90;;;;;;5088153;28;20039;-65
2023/01/05 00:59:47;;;;;;;5.45;2.88;;;5.60;99.90;;;;;;5109768;28;20089;-64
2023/01/05 01:02:14;;;;;;;5.05;2.70;;;5.60;99.90;;;;;;5092594;28;20043;-65
2023/01/05 01:04:40;;;;;;;3.85;2.40;;;5.60;99.90;;;;;;5091466;28;20411;-64
2023/01/05 01:07:07;;;;;;;6.00;2.95;;;5.60;99.90;;;;;;5103857;28;20561;-63
2023/01/05 01:09:34;;;;;;;7.07;2.53;;;5.50;99.90;;;;;;5105933;28;20039;-62
2023/01/05 01:12:01;;;;;;;6.85;2.97;;;5.50;99.90;;;;;;5089784;28;20100;-64
2023/01/05 01:14:28;;;;;;;7.18;2.88;;;5.50;99.90;;;;;;5110049;27;20381;-64
2023/01/05 01:16:55;;;;;;;4.07;2.35;;;5.50;99.90;;;;;;5091296;28;20786;-65
2023/01/05 01:19:24;;;;;;;4.15;2.40;;;5.50;99.90;;;;;;5092276;28;20066;-64
2023/01/05 01:21:51;;;;;;;5.47;2.25;;;5.50;99.90;;;;;;5109291;28;20120;-64
2023/01/05 01:24:23;;;;;;;5.85;2.10;;;5.50;99.90;;;;;;5092700;28;20085;-64
2023/01/05 01:26:51;;;;;;;4.20;1.88;;;5.50;99.90;;;;;;5082152;28;20097;-65
2023/01/05 01:29:18;;;;;;;3.63;2.58;;;5.40;99.90;;;;;;5090142;28;20531;-64
2023/01/05 01:31:49;;;;;;;;;;;5.50;99.90;;;;;;5086602;28;20038;-65
2023/01/05 01:34:16;;;;;;;6.85;3.10;;;5.50;99.90;;;;;;5108056;28;19924;-65
2023/01/05 01:36:43;;;;;;;7.95;3.65;;;5.50;99.90;;;;;;5103961;28;20119;-66
2023/01/05 01:39:11;;;;;;;7.70;3.53;;;5.50;99.90;;;;;;5093317;28;20063;-66
2023/01/05 01:41:41;;;;;;;7.07;3.03;;;5.50;99.90;;;;;;5088215;28;20492;-67
2023/01/05 01:44:46;;;;;;;9.10;3.50;;;5.50;99.90;;;;;;5091582;28;20044;-66
2023/01/05 01:47:20;;;;;;;4.68;2.80;;;5.60;99.90;;;;;;5088442;28;20044;-67
2023/01/05 01:49:47;;;;;;;6.50;3.10;;;5.60;99.90;;;;;;5080781;28;20504;-66
2023/01/05 01:52:14;;;;;;;;;;;5.70;99.90;;;;;;5107920;28;20047;-67
2023/01/05 01:54:41;;;;;;;4.78;2.88;;;5.70;99.90;;;;;;5088621;28;19981;-68
2023/01/05 01:57:10;;;;;;;4.50;2.80;;;5.70;99.90;;;;;;5090571;28;20031;-67
2023/01/05 01:59:38;;;;;;;4.75;2.47;;;5.70;99.90;;;;;;5091832;28;20047;-69
2023/01/05 02:02:06;;;;;;;3.55;2.50;;;5.70;99.90;;;;;;5110592;28;20514;-66
2023/01/05 02:04:36;;;;;;;6.15;2.45;;;5.70;99.90;;;;;;5089842;28;20560;-62
2023/01/05 02:07:05;;;;;;;5.00;2.47;;;5.80;99.90;;;;;;5091969;28;20039;-62
2023/01/05 02:09:32;;;;;;;3.78;2.30;;;5.80;99.90;;;;;;5102970;28;20081;-62
2023/01/05 02:12:33;;;;;;;5.47;2.20;;;5.80;99.90;;;;;;5092096;28;20092;-61
2023/01/05 02:15:28;;;;;;;4.65;2.15;;;5.80;99.90;;;;;;5093591;28;20112;-61
2023/01/05 02:18:42;;;;;;;5.57;2.47;;;5.80;99.90;;;;;;5061886;28;20567;-62
2023/01/05 02:21:33;;;;;;;5.68;2.97;;;5.70;99.90;;;;;;5024419;28;20060;-61
2023/01/05 02:24:43;;;;;;;4.30;3.00;;;5.80;99.90;;;;;;5028808;28;20076;-61
2023/01/05 02:27:21;;;;;;;5.72;3.17;;;5.70;99.90;;;;;;5069839;28;20462;-62
2023/01/05 02:30:22;;;;;;;6.20;3.80;;;5.60;99.90;;;;;;5073315;28;20048;-62
2023/01/05 02:33:16;;;;;;;7.35;3.10;;;5.60;99.90;;;;;;5092220;28;20056;-62
2023/01/05 02:35:57;;;;;;;5.05;2.90;;;5.60;99.90;;;;;;5091335;28;20040;-62
2023/01/05 02:38:55;;;;;;;5.78;3.00;;;5.60;99.90;;;;;;5091152;28;20040;-62
2023/01/05 02:41:50;;;;;;;6.20;3.00;;;5.70;99.90;;;;;;5081681;28;20039;-62
2023/01/05 02:44:18;;;;;;;6.45;2.80;;;5.70;99.90;;;;;;5093081;28;20039;-61
2023/01/05 02:47:01;;;;;;;6.13;2.92;;;5.80;99.90;;;;;;5093248;28;20048;-62
2023/01/05 02:49:30;;;;;;;5.80;2.80;;;5.80;99.90;;;;;;5090190;28;20044;-62
2023/01/05 02:52:00;;;;;;;5.47;2.75;;;5.80;99.90;;;;;;5111084;28;20046;-61
2023/01/05 02:54:33;;;;;;;6.90;3.25;;;5.80;99.90;;;;;;5091427;28;20066;-61
2023/01/05 02:57:15;;;;;;;5.18;3.05;;;5.80;99.90;;;;;;5111262;28;20082;-61
2023/01/05 02:59:46;;;;;;;4.38;2.90;;;5.70;99.90;;;;;;5111357;28;20043;-62
2023/01/05 03:02:21;;;;;;;4.65;2.53;;;5.70;99.90;;;;;;5090867;28;20478;-62
2023/01/05 03:05:08;;;;;;;5.88;2.60;;;5.70;99.90;;;;;;5092835;28;20452;-62
2023/01/05 03:07:41;;;;;;;4.70;2.55;;;5.70;99.90;;;;;;5109971;28;20047;-62
2023/01/05 03:15:57;;;;;;;5.93;2.75;;;5.50;99.90;;;;;;5096294;28;20175;-61
2023/01/05 03:18:26;;;;;;;5.28;3.03;;;5.50;99.90;;;;;;5095221;28;20071;-61
2023/01/05 03:20:54;;;;;;;4.05;2.80;;;5.50;99.90;;;;;;5096800;28;20050;-62
2023/01/05 03:38:06;;;;;;;7.32;2.30;;;5.60;99.90;;;;;;5099497;28;20101;-60
2023/01/05 03:40:36;;;;;;;4.40;2.40;;;5.60;99.90;;;;;;5095938;28;20143;-60
2023/01/05 03:43:04;;;;;;;4.55;2.22;;;5.50;99.90;;;;;;5092664;28;20139;-60
2023/01/05 03:45:39;;;;;;;5.00;2.78;;;5.50;99.90;;;;;;5092132;28;20040;-60
2023/01/05 03:48:08;;;;;;;5.72;2.88;;;5.50;99.90;;;;;;5093094;28;20565;-60
2023/01/05 03:50:36;;;;;;;5.15;2.70;;;5.50;99.90;;;;;;5116805;27;20060;-60
2023/01/05 03:53:03;;;;;;;4.57;2.45;;;5.40;99.90;;;;;;5113129;27;20035;-60
2023/01/05 03:55:31;;;;;;;5.07;2.60;;;5.50;99.90;;;;;;5122572;27;20052;-60
2023/01/05 03:57:58;;;;;;;6.47;2.70;;;5.50;99.90;;;;;;5093854;28;20505;-60
2023/01/05 04:00:27;;;;;;;7.47;2.92;;;5.50;99.90;;;;;;5092652;28;20466;-60
2023/01/05 04:03:00;;;;;;;6.55;2.60;;;5.50;99.90;;;;;;5092362;28;20121;-60
2023/01/05 04:05:27;;;;;;;6.72;2.70;;;5.50;99.90;;;;;;5105719;28;20126;-60
2023/01/05 04:07:54;;;;;;;3.28;2.45;;;5.50;99.90;;;;;;5101166;28;20036;-60
2023/01/05 04:10:21;;;;;;;4.75;2.85;;;5.50;99.90;;;;;;5092613;28;20143;-60
2023/01/05 04:12:48;;;;;;;5.32;2.70;;;5.50;99.90;;;;;;5093413;28;20393;-60
2023/01/05 04:15:16;;;;;;;4.35;2.45;;;5.50;99.90;;;;;;5092723;28;20842;-60
2023/01/05 04:17:44;;;;;;;4.47;2.80;;;5.50;99.90;;;;;;5104272;28;20538;-60
2023/01/05 04:20:12;;;;;;;5.75;2.72;;;5.60;99.90;;;;;;5104499;28;20090;-60
2023/01/05 04:22:39;;;;;;;4.30;2.95;;;5.50;99.90;;;;;;5102149;28;20036;-60
2023/01/05 04:25:08;;;;;;;5.15;3.13;;;5.60;99.90;;;;;;5117668;27;20044;-60
2023/01/05 04:27:35;;;;;;;5.35;2.83;;;5.60;99.90;;;;;;5110722;28;20120;-60
2023/01/05 04:30:05;;;;;;;5.05;3.20;;;5.60;99.90;;;;;;5126311;27;20551;-60
2023/01/05 04:32:32;;;;;;;4.60;2.83;;;5.60;99.90;;;;;;5093543;28;20058;-60
2023/01/05 04:34:59;;;;;;;4.78;2.75;;;5.60;99.90;;;;;;5092039;28;20048;-60
2023/01/05 04:37:38;;;;;;;;;;;5.70;99.90;;;;;;5099426;28;20496;-60
2023/01/05 04:40:05;;;;;;;4.35;3.00;;;5.70;99.90;;;;;;5102964;27;19920;-60
2023/01/05 04:42:40;;;;;;;5.00;2.85;;;5.70;99.90;;;;;;5108138;28;20044;-60
2023/01/05 04:45:09;;;;;;;6.78;3.00;;;5.70;99.90;;;;;;5092011;28;20044;-60
2023/01/05 04:47:36;;;;;;;6.65;3.15;;;5.70;99.90;;;;;;5091270;28;20575;-60
2023/01/05 04:50:04;;;;;;;6.88;3.30;;;5.70;99.90;;;;;;5091840;28;20050;-60
2023/01/05 04:52:31;;;;;;;5.88;3.28;;;5.70;99.90;;;;;;5104269;28;20392;-60
2023/01/05 04:54:58;;;;;;;7.72;3.90;;;5.70;99.90;;;;;;5104754;28;20066;-60
2023/01/05 04:57:26;;;;;;;5.68;3.25;;;5.70;99.90;;;;;;5096390;27;20119;-60
2023/01/05 04:59:53;;;;;;;6.88;3.42;;;5.70;99.90;;;;;;5091635;28;20036;-60
2023/01/05 05:02:20;;;;;;;10.35;4.30;;;5.70;99.90;;;;;;5091807;28;20067;-60
2023/01/05 05:04:49;;;;;;;5.80;3.63;;;5.70;99.90;;;;;;5121806;27;20032;-60
2023/01/05 05:07:17;;;;;;;5.57;3.13;;;5.70;99.90;;;;;;5091671;28;20054;-60
2023/01/05 05:09:44;;;;;;;6.43;3.58;;;5.70;99.90;;;;;;5099564;27;20063;-60
2023/01/05 05:12:12;;;;;;;6.57;3.95;;;5.70;99.90;;;;;;5095639;28;20054;-60
2023/01/05 05:14:39;;;;;;;7.30;3.25;;;5.70;99.90;;;;;;5090509;28;20048;-60
2023/01/05 05:17:06;;;;;;;6.50;3.40;;;5.80;99.90;;;;;;5091458;28;20131;-60
2023/01/05 05:19:32;;;;;;;7.53;3.75;;;5.80;99.90;;;;;;5101920;28;20042;-60
2023/01/05 05:22:00;;;;;;;;;;;5.80;99.90;;;;;;5114987;27;20044;-60
2023/01/05 05:24:27;;;;;;;7.00;3.17;;;5.80;99.90;;;;;;5102252;28;19919;-60
2023/01/05 05:26:56;;;;;;;7.18;3.65;;;5.80;99.90;;;;;;5128187;27;20059;-60
2023/01/05 05:29:23;;;;;;;5.88;2.88;;;5.80;99.90;;;;;;5111873;28;20047;-60
2023/01/05 05:31:50;;;;;;;4.25;2.78;;;5.70;99.90;;;;;;5097908;28;20047;-60
2023/01/05 05:34:17;;;;;;;9.82;3.80;;;5.70;99.90;;;;;;5091415;28;20504;-60
2023/01/05 05:36:44;;;;;;;5.88;3.60;;;5.70;99.90;;;;;;5092311;28;20040;-60
2023/01/05 05:39:12;;;;;;;6.72;3.65;;;5.60;99.90;;;;;;5095845;28;20496;-60
2023/01/05 05:41:39;;;;;;;5.82;3.28;;;5.60;99.90;;;;;;5092380;28;20036;-60
2023/01/05 05:44:07;;;;;;;7.93;3.30;;;5.50;99.90;;;;;;5107742;28;20401;-60
2023/01/05 05:46:34;;;;;;;9.60;4.03;;;5.60;99.90;;;;;;5093070;28;20036;-60
2023/01/05 05:49:01;;;;;;;8.23;3.95;;;5.60;99.90;;;;;;5106450;28;20106;-60
2023/01/05 05:51:28;;;;;;;6.90;3.60;;;5.50;99.90;;;;;;5108337;28;20039;-60
2023/01/05 05:53:54;;;;;;;6.60;3.40;;;5.50;99.90;;;;;;5103917;28;20065;-60
2023/01/05 05:56:22;;;;;;;7.03;3.22;;;5.60;99.90;;;;;;5112114;28;20090;-60
2023/01/05 05:58:49;;;;;;;7.68;3.38;;;5.60;99.90;;;;;;5107082;28;20040;-60
2023/01/05 06:01:19;;;;;;;7.38;4.03;;;5.70;99.90;;;;;;5097727;28;20199;-60
2023/01/05 06:03:45;;;;;;;6.95;3.60;;;5.70;99.90;;;;;;5089926;28;20059;-60
2023/01/05 06:06:12;;;;;;;3.58;2.20;;;5.70;99.90;;;;;;5102981;28;20137;-60
2023/01/05 06:08:39;;;;;;;5.72;3.50;;;5.70;99.90;;;;;;5103031;28;20097;-60
2023/01/05 06:11:06;;;;;;;7.38;3.45;;;5.80;99.90;;;;;;5096857;28;20036;-60
2023/01/05 06:13:33;;;;;;;5.45;2.67;;;5.80;99.90;;;;;;5090753;28;20044;-60
2023/01/05 06:16:00;;;;;;;4.45;2.90;;;5.80;99.90;;;;;;5091622;28;20036;-60
2023/01/05 06:18:27;;;;;;;5.55;2.95;;;5.80;99.90;;;;;;5097561;28;20039;-60
2023/01/05 06:20:54;;;;;;;8.02;3.70;;;5.90;99.90;;;;;;5091726;28;20036;-60
2023/01/05 06:23:27;;;;;;;4.35;3.05;;;5.90;99.90;;;;;;5093350;28;20046;-60
2023/01/05 06:25:54;;;;;;;5.85;3.10;;;5.90;99.90;;;;;;5097599;28;20040;-60
2023/01/05 06:28:20;;;;;;;5.45;3.17;;;5.80;99.90;;;;;;5090443;28;20110;-60
2023/01/05 06:30:47;;;;;;;5.55;3.42;;;5.80;99.90;;;;;;5090583;28;20048;-60
2023/01/05 06:33:14;;;;;;;4.70;3.00;;;5.90;99.90;;;;;;5091105;28;20488;-60
2023/01/05 06:35:41;;;;;;;5.93;3.60;;;5.90;99.90;;;;;;5103254;28;20124;-60
2023/01/05 06:38:09;;;;;;;5.22;3.33;;;5.90;99.90;;;;;;5106535;28;20069;-60
2023/01/05 06:40:39;;;;;;;8.02;2.97;;;5.90;99.90;;;;;;5111423;28;20051;-60
2023/01/05 06:43:06;;;;;;;6.15;3.50;;;5.90;99.90;;;;;;5111460;28;20036;-60
2023/01/05 06:45:32;;;;;;;8.52;3.80;;;5.90;99.90;;;;;;5104884;28;20040;-60
2023/01/05 06:47:59;;;;;;;6.72;3.20;;;5.90;99.90;;;;;;5118642;28;20047;-60
2023/01/05 06:50:26;;;;;;;5.57;3.20;;;5.90;99.90;;;;;;5107655;27;20048;-60
2023/01/05 06:52:53;;;;;;;5.28;2.90;;;5.90;99.90;;;;;;5097728;28;20519;-60
2023/01/05 06:55:20;;;;;;;7.35;3.30;;;5.90;99.90;;;;;;5097693;28;20093;-60
2023/01/05 06:57:47;;;;;;;5.82;3.33;;;5.80;99.90;;;;;;5104427;28;20028;-60
2023/01/05 07:00:15;;;;;;;5.88;3.78;;;5.80;99.90;;;;;;5109193;28;20039;-60
2023/01/05 07:02:41;;;;;;;7.15;3.67;;;5.90;99.90;;;;;;5108247;28;20097;-60
2023/01/05 07:05:09;;;;;;;5.75;3.28;;;5.90;99.90;;;;;;5117579;28;20043;-60
2023/01/05 07:07:35;;;;;;;9.13;4.00;;;5.90;99.90;;;;;;5117955;27;20100;-60
2023/01/05 07:10:03;;;;;;;5.80;3.47;;;5.80;99.90;;;;;;5112005;28;20407;-60
2023/01/05 07:12:29;;;;;;;;;;;5.80;99.90;;;;;;5116643;28;20047;-60
2023/01/05 07:14:56;;;;;;;6.15;3.72;;;5.80;99.90;;;;;;5111250;28;19951;-60
2023/01/05 07:17:24;;;;;;;7.72;4.38;;;5.80;99.90;;;;;;5107025;28;20047;-60
2023/01/05 07:19:50;;;;;;;6.18;3.78;;;5.80;99.90;;;;;;5117849;27;20050;-60
2023/01/05 07:22:17;;;;;;;10.27;4.10;;;5.90;99.90;;;;;;5115404;28;20065;-60
2023/01/05 07:24:44;;;;;;;7.00;4.32;;;5.90;99.90;;;;;;5112729;27;20044;-60
2023/01/05 07:27:11;;;;;;;12.43;4.35;;;5.90;99.90;;;;;;5113472;28;20455;-60
2023/01/05 07:29:37;;;;;;;6.93;3.70;;;5.90;99.90;;;;;;5103917;28;20048;-60
2023/01/05 07:32:04;;;;;;;8.70;3.95;;;5.90;99.90;;;;;;5099559;28;20055;-60
2023/01/05 07:34:31;;;;;;;7.50;4.68;;;5.90;99.90;;;;;;5096748;28;20050;-60
2023/01/05 07:36:57;;;;;;;9.60;4.57;;;5.90;99.90;;;;;;5113751;28;20445;-60
2023/01/05 07:39:24;;;;;;;8.20;4.45;;;5.90;99.90;;;;;;5115370;28;20093;-61
2023/01/05 07:41:51;;;;;;;9.38;4.88;;;5.90;99.90;;;;;;5099960;28;20036;-61
2023/01/05 07:44:17;;;;;;;10.10;4.75;;;6.00;99.90;;;;;;5096968;28;20040;-60
2023/01/05 07:46:44;;;;;;;10.50;4.65;;;6.00;99.90;;;;;;5097600;28;20040;-61
2023/01/05 07:49:11;;;;;;;6.97;4.40;;;6.00;99.90;;;;;;5107790;28;20032;-60
2023/01/05 07:51:38;;;;;;;7.53;3.97;;;6.00;99.90;;;;;;5110803;28;20051;-60
2023/01/05 07:54:04;;;;;;;7.75;4.07;;;6.10;99.90;;;;;;5118206;28;20441;-60
2023/01/05 07:56:31;;;;;;;11.18;6.50;;;6.10;99.90;;;;;;5114827;28;20151;-60
2023/01/05 07:58:58;;;;;;;12.07;6.95;;;6.10;99.90;;;;;;5100166;28;20058;-61
2023/01/05 08:01:25;;;;;;;9.35;5.45;;;6.10;99.90;;;;;;5105403;28;20043;-61
2023/01/05 08:03:52;;;;;;;12.88;6.78;;;6.10;99.90;;;;;;5112227;28;20059;-60
2023/01/05 08:06:20;;;;;;;19.52;8.25;;;6.10;99.90;;;;;;5097753;28;20044;-60
2023/01/05 08:08:47;;;;;;;41.65;16.45;;;6.20;99.90;;;;;;5093577;28;20301;-60
2023/01/05 08:11:15;;;;;;;12.25;5.88;;;6.20;99.90;;;;;;5094246;28;20489;-60
2023/01/05 08:13:59;;;;;;;15.10;8.07;;;6.30;99.90;;;;;;5109471;28;20044;-61
2023/01/05 08:16:26;;;;;;;16.17;8.18;;;6.30;99.90;;;;;;5100937;28;20105;-60
2023/01/05 08:18:53;;;;;;;14.50;5.57;;;6.50;99.90;;;;;;5093824;28;20484;-60
2023/01/05 08:21:20;;;;;;;12.30;7.25;;;6.60;99.90;;;;;;5101493;28;20100;-61
2023/01/05 08:23:49;;;;;;;9.95;3.85;;;6.60;99.90;;;;;;5113060;27;20037;-60
2023/01/05 08:26:17;;;;;;;7.97;4.82;;;6.70;99.90;;;;;;5111847;28;20093;-60
2023/01/05 08:28:44;;;;;;;9.98;5.32;;;6.70;99.90;;;;;;5102088;28;20040;-60
2023/01/05 08:31:17;;;;;;;8.25;4.93;;;6.70;99.90;;;;;;5099972;28;20523;-60
2023/01/05 08:33:44;;;;;;;9.40;4.60;;;6.70;99.90;;;;;;5093494;28;20412;-60
2023/01/05 08:36:15;;;;;;;11.18;5.28;;;6.80;99.90;;;;;;5108359;28;20385;-60
2023/01/05 08:38:47;;;;;;;8.38;4.60;;;6.80;99.90;;;;;;5113807;28;20043;-60
2023/01/05 08:41:29;;;;;;;7.45;4.22;;;6.90;99.90;;;;;;5111712;28;20040;-60
2023/01/05 08:44:01;;;;;;;16.15;5.82;;;6.90;99.90;;;;;;5093401;28;20048;-60
2023/01/05 08:46:31;;;;;;;15.88;5.93;;;7.00;99.90;;;;;;5093315;28;20117;-60
2023/01/05 08:49:00;;;;;;;8.82;5.07;;;6.90;99.90;;;;;;5094151;28;20044;-60
2023/01/05 08:51:28;;;;;;;10.00;5.13;;;6.90;99.90;;;;;;5103655;28;20542;-60
2023/01/05 08:53:54;;;;;;;8.52;4.30;;;6.90;99.90;;;;;;5100201;28;20065;-60
2023/01/05 08:56:23;;;;;;;8.52;4.72;;;6.90;99.90;;;;;;5110139;28;20101;-60
2023/01/05 08:58:51;;;;;;;9.00;4.57;;;6.90;99.90;;;;;;5113490;28;20476;-60
2023/01/05 09:01:20;;;;;;;7.30;3.65;;;7.00;99.90;;;;;;5102213;28;20486;-60
2023/01/05 09:03:47;;;;;;;8.95;4.70;;;7.00;99.90;;;;;;5092766;28;20052;-60
2023/01/05 09:06:15;;;;;;;8.15;4.63;;;7.00;99.90;;;;;;5092294;28;20048;-60
2023/01/05 09:08:43;;;;;;;8.63;4.65;;;6.90;99.90;;;;;;5099868;28;20058;-60
2023/01/05 09:11:11;;;;;;;12.65;5.40;;;6.80;99.90;;;;;;5101901;28;20052;-60
2023/01/05 09:13:39;;;;;;;7.85;4.75;;;6.80;99.90;;;;;;5111940;28;20044;-60
2023/01/05 09:16:11;;;;;;;10.35;4.88;;;6.80;99.90;;;;;;5111721;28;20047;-60
2023/01/05 09:18:39;;;;;;;7.13;4.43;;;6.90;99.90;;;;;;5104361;28;20058;-60
2023/01/05 09:21:07;;;;;;;8.70;4.10;;;6.90;99.90;;;;;;5110490;28;20097;-60
2023/01/05 09:23:35;;;;;;;8.07;4.32;;;7.00;99.90;;;;;;5104037;28;20468;-60
2023/01/05 09:26:06;;;;;;;7.65;4.53;;;7.00;99.90;;;;;;5095840;22;20080;-60
2023/01/05 09:28:35;;;;;;;8.55;4.38;;;7.00;99.90;;;;;;5051629;28;20509;-60
2023/01/05 09:31:18;;;;;;;9.32;4.72;;;7.00;99.90;;;;;;5030976;28;20044;-63
2023/01/05 09:33:46;;;;;;;7.10;4.38;;;6.90;99.90;;;;;;5052014;28;20124;-61
2023/01/05 09:36:14;;;;;;;9.05;4.47;;;7.00;99.90;;;;;;5041603;28;20032;-60
2023/01/05 09:38:41;;;;;;;12.77;7.57;;;7.00;99.90;;;;;;5063098;28;20094;-60
2023/01/05 09:41:23;;;;;;;11.20;5.57;;;7.10;99.90;;;;;;5071435;28;20041;-60
2023/01/05 09:43:56;;;;;;;9.82;4.68;;;7.10;99.90;;;;;;5071824;28;20577;-60
2023/01/05 09:46:28;;;;;;;10.20;4.85;;;7.20;99.90;;;;;;5061539;28;20045;-61
2023/01/05 09:48:59;;;;;;;14.57;7.30;;;7.30;99.90;;;;;;5071928;28;20044;-60
2023/01/05 09:51:27;;;;;;;12.20;6.85;;;7.40;99.90;;;;;;5051965;28;20590;-61
2023/01/05 09:53:55;;;;;;;13.48;6.70;;;7.40;99.90;;;;;;5064771;28;20063;-60
2023/01/05 09:56:27;;;;;;;9.55;5.43;;;7.50;99.90;;;;;;5071058;28;20048;-61
2023/01/05 09:59:24;;;;;;;9.98;6.00;;;7.60;99.90;;;;;;5051296;28;20037;-61
2023/01/05 10:01:54;;;;;;;9.45;5.50;;;7.60;99.90;;;;;;5050938;28;20040;-61
2023/01/05 10:04:22;;;;;;;10.52;5.40;;;7.70;99.90;;;;;;5051481;28;20067;-60
2023/01/05 10:07:03;;;;;;;12.70;5.57;;;7.90;99.90;;;;;;5054290;28;20040;-60
2023/01/05 10:09:34;;;;;;;9.27;5.63;;;7.90;99.90;;;;;;5051216;28;20451;-61
2023/01/05 10:15:15;;;;;;;10.68;5.18;;;7.90;99.90;;;;;;5050091;28;20055;-60
2023/01/05 10:17:43;;;;;;;11.85;5.35;;;7.90;99.90;;;;;;5050733;28;20041;-60
2023/01/05 10:20:26;;;;;;;15.90;6.13;;;7.90;99.90;;;;;;5050522;28;20037;-61
2023/01/05 10:23:26;;;;;;;15.05;8.38;;;7.90;99.90;;;;;;5049915;28;20551;-61
2023/01/05 10:26:11;;;;;;;15.18;7.50;;;7.80;99.90;;;;;;5043879;28;20086;-61
2023/01/05 10:28:59;;;;;;;12.93;6.95;;;7.80;99.90;;;;;;5051001;28;20071;-61
2023/01/05 10:31:40;;;;;;;13.20;6.35;;;7.90;99.90;;;;;;5050797;28;20121;-61
2023/01/05 10:34:22;;;;;;;12.20;5.82;;;8.00;99.90;;;;;;5048825;28;20501;-61
2023/01/05 10:37:02;;;;;;;12.45;5.65;;;8.00;99.90;;;;;;5050815;28;20225;-61
2023/01/05 10:39:43;;;;;;;11.52;6.03;;;8.00;99.90;;;;;;5049172;28;20572;-61
2023/01/05 10:42:44;;;;;;;11.00;5.65;;;8.00;99.90;;;;;;5050453;28;20052;-61
2023/01/05 10:45:14;;;;;;;10.43;6.40;;;8.00;99.90;;;;;;5049935;28;20127;-61
2023/01/05 10:47:41;;;;;;;13.38;6.10;;;7.80;99.90;;;;;;5051004;28;20563;-61
2023/01/05 10:50:39;;;;;;;12.98;6.13;;;7.80;99.90;;;;;;5049632;28;20044;-61
2023/01/05 10:53:19;;;;;;;14.63;7.80;;;7.90;99.90;;;;;;5050204;28;20037;-61
2023/01/05 10:56:14;;;;;;;12.68;7.25;;;7.80;99.90;;;;;;5050755;28;20055;-61
2023/01/05 10:58:45;;;;;;;14.10;7.13;;;7.90;99.90;;;;;;5052732;28;20501;-61
2023/01/05 11:01:23;;;;;;;11.00;6.90;;;8.00;99.90;;;;;;5056332;28;20037;-61
2023/01/05 11:04:03;;;;;;;11.50;5.80;;;8.00;99.90;;;;;;5046566;28;20052;-61
2023/01/05 11:06:50;;;;;;;10.55;5.00;;;8.10;99.90;;;;;;5047846;28;20041;-60
2023/01/05 11:09:18;;;;;;;;;;;8.40;99.90;;;;;;5029910;28;20544;-60
2023/01/05 11:12:01;;;;;;;14.48;7.75;;;8.40;99.90;;;;;;5048455;28;20300;-60
2023/01/05 11:14:32;;;;;;;14.75;7.70;;;8.50;99.90;;;;;;5048010;28;20065;-61
2023/01/05 11:17:06;;;;;;;14.30;6.68;;;8.60;99.90;;;;;;5047828;28;20057;-60
2023/01/05 11:19:42;;;;;;;18.02;8.02;;;8.70;99.90;;;;;;5049144;28;20536;-61
2023/01/05 11:22:29;;;;;;;11.23;6.22;;;8.70;99.90;;;;;;5049853;28;20106;-60
2023/01/05 11:25:31;;;;;;;14.52;7.00;;;8.80;99.90;;;;;;5050422;28;20048;-61
2023/01/05 11:28:09;;;;;;;13.27;6.85;;;8.70;99.90;;;;;;5054876;28;20039;-61
2023/01/05 11:30:40;;;;;;;;;;;8.80;99.90;;;;;;5062875;28;20435;-61
2023/01/05 11:33:22;;;;;;;17.90;8.35;;;8.90;99.90;;;;;;5067443;28;19928;-61
2023/01/05 11:35:51;;;;;;;16.88;8.15;;;9.00;99.90;;;;;;5053878;28;20170;-61
2023/01/05 11:38:24;;;;;;;20.83;8.35;;;9.10;99.90;;;;;;5053521;28;20041;-61
2023/01/05 11:40:55;;;;;;;20.73;8.63;;;9.20;99.90;;;;;;5052603;28;20378;-60
2023/01/05 11:43:25;;;;;;;12.35;5.55;;;9.30;99.90;;;;;;5053711;28;20464;-61
2023/01/05 11:46:02;;;;;;;8.07;4.25;;;9.40;99.90;;;;;;5035429;28;20053;-60
2023/01/05 11:48:33;;;;;;;7.72;3.90;;;9.40;99.90;;;;;;5052528;28;20123;-61
2023/01/05 11:51:01;;;;;;;9.13;4.45;;;9.40;99.90;;;;;;5053753;28;20045;-61
2023/01/05 11:53:33;;;;;;;9.90;4.97;;;9.50;99.90;;;;;;5070921;28;20041;-61
2023/01/05 11:56:20;;;;;;;2.05;1.15;;;9.60;99.90;;;;;;5074123;28;20463;-61
2023/01/05 11:58:49;;;;;;;5.93;3.17;;;10.00;99.90;;;;;;5061453;28;20033;-61
2023/01/05 12:01:46;;;;;;;7.80;2.83;;;10.10;99.90;;;;;;5060242;28;20048;-61
2023/01/05 12:04:22;;;;;;;5.00;2.40;;;10.30;99.90;;;;;;5061230;28;20040;-61
2023/01/05 12:07:01;;;;;;;4.78;2.30;;;10.30;99.90;;;;;;5073018;28;20076;-61
2023/01/05 12:09:36;;;;;;;7.35;3.17;;;10.40;99.90;;;;;;5068152;28;20037;-61
2023/01/05 12:12:10;;;;;;;11.27;5.05;;;10.50;99.90;;;;;;5053139;28;20413;-61
2023/01/05 12:14:52;;;;;;;3.85;2.13;;;10.50;99.90;;;;;;5054106;28;20510;-61
2023/01/05 12:17:44;;;;;;;6.35;2.70;;;10.60;99.90;;;;;;5049450;28;20107;-61
2023/01/05 12:20:48;;;;;;;13.65;5.68;;;10.80;99.90;;;;;;5019761;28;20060;-61
2023/01/05 12:23:33;;;;;;;8.77;3.90;;;10.90;99.90;;;;;;5051872;28;20056;-61
2023/01/05 12:26:26;;;;;;;11.02;4.95;;;10.90;99.90;;;;;;5049421;28;20179;-61
2023/01/05 12:29:20;;;;;;;20.95;8.15;;;10.90;99.90;;;;;;5052567;28;20119;-61
2023/01/05 12:32:25;;;;;;;2.83;1.63;;;10.90;99.90;;;;;;5049108;28;20519;-61
2023/01/05 12:35:38;;;;;;;0.70;0.60;;;11.10;99.90;;;;;;5051777;28;20065;-61
2023/01/05 12:38:19;;;;;;;0.45;0.40;;;11.30;99.90;;;;;;5052444;28;20498;-61
2023/01/05 12:41:05;;;;;;;1.20;0.50;;;11.40;99.90;;;;;;5060660;28;20037;-61
2023/01/05 12:43:50;;;;;;;0.73;0.28;;;11.40;99.90;;;;;;5052433;28;20068;-61
2023/01/05 12:46:31;;;;;;;0.50;0.30;;;11.40;99.90;;;;;;5045915;28;20490;-61
2023/01/05 12:49:03;;;;;;;0.47;0.30;;;11.50;99.90;;;;;;5048642;28;20045;-61
2023/01/05 12:51:45;;;;;;;0.43;0.30;;;11.40;99.90;;;;;;5051936;28;20049;-61
2023/01/05 12:54:47;;;;;;;0.60;0.40;;;11.40;99.90;;;;;;5052537;28;20044;-61
2023/01/05 12:57:44;;;;;;;0.70;0.30;;;11.50;99.90;;;;;;5058915;28;20094;-61
2023/01/05 13:00:15;;;;;;;0.65;0.22;;;11.50;99.90;;;;;;5050304;28;20113;-61
2023/01/05 13:02:57;;;;;;;0.57;0.15;;;11.40;99.90;;;;;;5051939;28;20107;-61
2023/01/05 13:05:38;;;;;;;0.35;0.20;;;11.30;99.90;;;;;;5051982;28;20048;-61
2023/01/05 13:08:17;;;;;;;0.30;0.10;;;11.20;99.90;;;;;;5051201;28;20041;-61
2023/01/05 13:10:53;;;;;;;0.35;0.32;;;11.00;99.90;;;;;;5052327;28;20037;-61
2023/01/05 13:13:26;;;;;;;1.13;0.40;;;10.80;99.90;;;;;;5050416;28;20084;-61
2023/01/05 13:16:09;;;;;;;0.55;0.40;;;10.70;99.90;;;;;;5051988;28;20037;-61
2023/01/05 13:18:40;;;;;;;0.63;0.50;;;10.60;99.90;;;;;;5046805;28;20386;-61
2023/01/05 13:21:08;;;;;;;0.52;0.30;;;10.50;99.90;;;;;;5051738;28;20029;-61
2023/01/05 13:23:46;;;;;;;0.60;0.50;;;10.40;99.90;;;;;;5050386;28;20444;-61
2023/01/05 13:26:17;;;;;;;0.75;0.50;;;10.40;99.90;;;;;;5051676;28;20094;-61
2023/01/05 13:28:54;;;;;;;1.45;0.30;;;10.30;99.90;;;;;;5051646;28;20059;-61
2023/01/05 13:31:40;;;;;;;0.77;0.50;;;10.20;99.90;;;;;;5053786;28;20052;-61
2023/01/05 13:34:39;;;;;;;4.10;0.60;;;10.10;99.90;;;;;;5048344;28;20047;-61
2023/01/05 13:37:24;;;;;;;;;;;10.00;99.90;;;;;;5046291;28;20126;-62
2023/01/05 13:40:06;;;;;;;0.90;0.38;;;9.90;99.90;;;;;;5031532;28;20381;-61
2023/01/05 13:43:07;;;;;;;1.08;0.40;;;10.00;99.90;;;;;;5047664;28;20048;-61
2023/01/05 13:45:57;;;;;;;1.80;0.40;;;10.00;99.90;;;;;;5046652;28;20110;-62
2023/01/05 13:49:07;;;;;;;1.05;0.50;;;10.00;99.90;;;;;;5052158;28;20049;-61
2023/01/05 13:51:52;;;;;;;1.48;0.40;;;10.00;99.90;;;;;;5046786;28;20698;-61
2023/01/05 13:54:37;;;;;;;4.70;1.70;;;10.00;99.90;;;;;;5051505;28;20102;-61
2023/01/05 13:57:24;;;;;;;5.68;1.60;;;10.00;99.90;;;;;;5050306;28;20052;-61
2023/01/05 13:59:57;;;;;;;6.32;2.25;;;10.00;99.90;;;;;;5051388;28;20041;-61
2023/01/05 14:02:42;;;;;;;20.47;8.37;;;10.00;99.90;;;;;;5047993;28;20053;-61